createdAt,value
2019-02-10T00:02:00.873Z,414.10
2019-02-10T00:04:09.687Z,554.77
2019-02-10T00:06:14.457Z,518.93
2019-02-10T00:08:19.555Z,277.80
2019-02-10T00:10:24.540Z,205.20
2019-02-10T00:12:30.632Z,594.73
2019-02-10T00:14:35.881Z,540.93
2019-02-10T00:16:41.926Z,527.87
2019-02-10T00:18:46.150Z,325.53
2019-02-10T00:20:50.449Z,559.37
2019-02-10T00:22:55.018Z,764.50
2019-02-10T00:24:59.998Z,691.03
2019-02-10T00:27:04.256Z,441.60
2019-02-10T00:29:09.208Z,250.47
2019-02-10T00:31:13.488Z,405.00
2019-02-10T00:33:18.422Z,201.87
2019-02-10T00:35:23.994Z,451.20
2019-02-10T00:37:31.378Z,425.33
2019-02-10T00:39:53.585Z,260.60
2019-02-10T00:41:58.830Z,64.40
2019-02-10T00:44:04.130Z,309.30
2019-02-10T00:46:09.519Z,99.17
2019-02-10T00:48:15.045Z,48.30
2019-02-10T00:50:21.731Z,9.30
2019-02-10T00:52:28.189Z,3.63
2019-02-10T00:54:36.652Z,3.23
2019-02-10T00:56:44.237Z,3.10
2019-02-10T00:58:48.411Z,2.27
2019-02-10T01:00:53.269Z,1.97
2019-02-10T01:02:58.400Z,2.40
2019-02-10T01:05:03.870Z,1.57
2019-02-10T01:07:08.126Z,2.20
2019-02-10T01:09:12.464Z,2.30
2019-02-10T01:11:16.893Z,2.13
2019-02-10T01:13:21.851Z,2.17
2019-02-10T01:15:26.033Z,1.67
2019-02-10T01:17:33.417Z,1.60
2019-02-10T01:19:41.081Z,1.90
2019-02-10T01:21:51.557Z,1.43
2019-02-10T01:23:55.883Z,1.70
2019-02-10T01:26:01.039Z,1.20
2019-02-10T01:28:05.894Z,1.60
2019-02-10T01:30:11.972Z,1.73
2019-02-10T01:32:16.341Z,1.93
2019-02-10T01:34:20.533Z,1.87
2019-02-10T01:36:24.996Z,1.30
2019-02-10T01:38:29.705Z,1.90
2019-02-10T01:40:35.051Z,1.60
2019-02-10T01:42:42.778Z,2.10
2019-02-10T01:44:53.758Z,1.43
2019-02-10T01:46:58.487Z,1.40
2019-02-10T01:49:03.873Z,1.60
2019-02-10T01:51:08.793Z,1.80
2019-02-10T01:53:14.354Z,1.63
2019-02-10T01:55:19.262Z,1.40
2019-02-10T01:57:23.834Z,1.67
2019-02-10T01:59:28.063Z,1.80
2019-02-10T02:01:32.350Z,1.40
2019-02-10T02:03:37.142Z,1.60
2019-02-10T02:05:42.052Z,1.50
2019-02-10T02:07:48.424Z,1.43
2019-02-10T02:09:57.712Z,1.40
2019-02-10T02:12:02.869Z,1.57
2019-02-10T02:14:07.713Z,1.70
2019-02-10T02:16:14.452Z,1.73
2019-02-10T02:18:20.421Z,1.70
2019-02-10T02:20:25.903Z,1.47
2019-02-10T02:22:31.729Z,1.40
2019-02-10T02:24:35.927Z,1.27
2019-02-10T02:26:41.580Z,1.60
2019-02-10T02:28:49.905Z,1.33
2019-02-10T02:31:00.042Z,1.60
2019-02-10T02:33:04.457Z,1.53
2019-02-10T02:35:09.334Z,1.57
2019-02-10T02:37:15.634Z,1.50
2019-02-10T02:39:20.200Z,1.57
2019-02-10T02:41:24.793Z,1.33
2019-02-10T02:43:29.132Z,1.73
2019-02-10T02:45:33.458Z,1.93
2019-02-10T02:47:39.044Z,1.63
2019-02-10T02:49:43.779Z,1.60
2019-02-10T02:51:51.916Z,1.07
2019-02-10T02:54:00.728Z,1.40
2019-02-10T02:56:08.027Z,1.63
2019-02-10T02:58:12.953Z,1.30
2019-02-10T03:00:17.756Z,1.60
2019-02-10T03:02:23.013Z,1.37
2019-02-10T03:04:27.287Z,1.57
2019-02-10T03:06:50.772Z,1.27
2019-02-10T03:08:58.487Z,1.50
2019-02-10T03:11:07.756Z,1.30
2019-02-10T03:13:13.878Z,1.20
2019-02-10T03:15:19.555Z,1.43
2019-02-10T03:17:23.869Z,1.53
2019-02-10T03:19:29.062Z,1.40
2019-02-10T03:21:33.185Z,1.50
2019-02-10T03:23:38.683Z,1.40
2019-02-10T03:25:42.793Z,1.70
2019-02-10T03:27:47.366Z,1.20
2019-02-10T03:29:52.535Z,1.83
2019-02-10T03:31:57.104Z,1.40
2019-02-10T03:34:01.280Z,1.33
2019-02-10T03:36:05.553Z,1.27
2019-02-10T03:38:10.110Z,1.63
2019-02-10T03:40:14.279Z,1.70
2019-02-10T03:42:18.452Z,1.70
2019-02-10T03:44:24.261Z,1.50
2019-02-10T03:46:32.130Z,1.10
2019-02-10T03:48:37.408Z,1.37
2019-02-10T03:50:43.912Z,1.73
2019-02-10T03:52:48.138Z,1.40
2019-02-10T03:54:52.330Z,1.40
2019-02-10T03:56:57.694Z,1.53
2019-02-10T03:59:03.701Z,1.43
2019-02-10T04:01:08.356Z,1.27
2019-02-10T04:03:13.323Z,1.47
2019-02-10T04:05:17.408Z,1.70
2019-02-10T04:07:21.581Z,1.33
2019-02-10T04:09:28.631Z,1.30
2019-02-10T04:11:36.054Z,1.80
2019-02-10T04:13:43.025Z,1.40
2019-02-10T04:15:49.136Z,1.13
2019-02-10T04:17:53.787Z,1.30
2019-02-10T04:19:58.082Z,1.40
2019-02-10T04:22:03.569Z,1.33
2019-02-10T04:24:08.119Z,1.57
2019-02-10T04:26:12.409Z,1.43
2019-02-10T04:28:27.815Z,1.50
2019-02-10T04:30:32.455Z,1.43
2019-02-10T04:32:38.066Z,1.67
2019-02-10T04:34:45.773Z,1.77
2019-02-10T04:36:53.641Z,1.20
2019-02-10T04:38:57.838Z,1.33
2019-02-10T04:41:01.988Z,1.20
2019-02-10T04:43:06.639Z,1.70
2019-02-10T04:45:11.221Z,1.50
2019-02-10T04:47:15.849Z,1.53
2019-02-10T04:49:19.993Z,1.40
2019-02-10T04:51:24.351Z,1.30
2019-02-10T04:53:29.127Z,1.73
2019-02-10T04:55:34.714Z,1.33
2019-02-10T04:57:42.158Z,1.40
2019-02-10T04:59:49.284Z,1.43
2019-02-10T05:01:55.161Z,1.60
2019-02-10T05:04:00.229Z,1.10
2019-02-10T05:06:06.074Z,1.53
2019-02-10T05:08:11.628Z,1.80
2019-02-10T05:10:15.829Z,1.70
2019-02-10T05:12:21.749Z,1.57
2019-02-10T05:14:28.113Z,1.50
2019-02-10T05:16:33.055Z,1.60
2019-02-10T05:18:38.410Z,1.57
2019-02-10T05:20:47.417Z,1.13
2019-02-10T05:23:00.693Z,1.40
2019-02-10T05:25:07.791Z,1.27
2019-02-10T05:27:15.720Z,1.40
2019-02-10T05:29:20.376Z,1.50
2019-02-10T05:31:26.440Z,1.73
2019-02-10T05:33:33.273Z,1.77
2019-02-10T05:35:39.087Z,1.20
2019-02-10T05:37:46.746Z,1.20
2019-02-10T05:39:53.795Z,1.87
2019-02-10T05:42:02.655Z,1.43
2019-02-10T05:44:07.378Z,1.50
2019-02-10T05:46:13.207Z,1.33
2019-02-10T05:48:37.662Z,1.80
2019-02-10T05:50:43.027Z,1.10
2019-02-10T05:52:54.591Z,1.20
2019-02-10T05:55:07.366Z,1.20
2019-02-10T05:57:13.678Z,1.57
2019-02-10T05:59:19.029Z,1.43
2019-02-10T06:02:12.897Z,1.40
2019-02-10T06:04:17.921Z,2.77
2019-02-10T06:06:26.408Z,1.87
2019-02-10T06:08:31.181Z,1.50
2019-02-10T06:10:47.336Z,1.70
2019-02-10T06:12:54.814Z,1.40
2019-02-10T06:15:02.383Z,1.40
2019-02-10T06:17:10.047Z,1.60
2019-02-10T06:19:16.631Z,1.50
2019-02-10T06:21:22.903Z,1.73
2019-02-10T06:23:28.740Z,1.40
2019-02-10T06:25:42.090Z,1.53
2019-02-10T06:27:47.407Z,2.57
2019-02-10T06:29:52.132Z,61.53
2019-02-10T06:31:57.712Z,349.50
2019-02-10T06:34:06.556Z,323.40
2019-02-10T06:36:11.485Z,319.27
2019-02-10T06:38:22.441Z,737.03
2019-02-10T06:40:27.170Z,454.90
2019-02-10T06:42:34.306Z,165.53
2019-02-10T06:44:42.866Z,756.27
2019-02-10T06:46:50.549Z,653.90
2019-02-10T06:48:56.728Z,612.60
2019-02-10T06:51:02.708Z,290.67
2019-02-10T06:53:08.118Z,85.63
2019-02-10T06:55:14.304Z,566.03
2019-02-10T06:57:19.671Z,563.13
2019-02-10T06:59:52.513Z,712.87
2019-02-10T07:02:03.081Z,589.57
2019-02-10T07:04:29.757Z,601.70
2019-02-10T07:06:36.366Z,579.40
2019-02-10T07:08:45.920Z,487.60
2019-02-10T07:10:51.480Z,285.67
2019-02-10T07:12:56.281Z,286.87
2019-02-10T07:15:05.761Z,547.43
2019-02-10T07:17:38.773Z,242.07
2019-02-10T07:20:52.398Z,43.80
2019-02-10T07:23:28.310Z,5.27
2019-02-10T07:26:01.872Z,4.20
2019-02-10T07:28:53.474Z,2.97
2019-02-10T07:31:04.720Z,2.40
2019-02-10T07:33:37.467Z,2.70
2019-02-10T07:36:20.764Z,2.57
2019-02-10T07:38:57.949Z,1.90
2019-02-10T07:41:32.483Z,2.00
2019-02-10T07:44:27.812Z,2.03
2019-02-10T07:46:57.700Z,1.90
2019-02-10T07:49:43.176Z,1.70
2019-02-10T07:52:17.451Z,1.60
2019-02-10T07:54:32.916Z,1.90
2019-02-10T07:57:23.645Z,1.90
2019-02-10T07:59:56.186Z,1.80
2019-02-10T08:02:39.542Z,1.60
2019-02-10T08:05:14.304Z,1.97
2019-02-10T08:07:56.968Z,2.00
2019-02-10T08:10:34.783Z,2.47
2019-02-10T08:12:58.870Z,1.67
2019-02-10T08:15:21.487Z,1.97
2019-02-10T08:17:58.543Z,1.70
2019-02-10T08:20:42.471Z,1.80
2019-02-10T08:23:29.022Z,1.70
2019-02-10T08:26:30.121Z,1.97
2019-02-10T08:29:19.789Z,1.83
2019-02-10T08:31:41.315Z,1.73
2019-02-10T08:34:17.063Z,2.10
2019-02-10T08:37:24.925Z,1.90
2019-02-10T08:39:52.090Z,1.93
2019-02-10T08:42:32.132Z,1.93
2019-02-10T08:45:17.780Z,1.93
2019-02-10T08:47:33.633Z,1.70
2019-02-10T08:50:01.935Z,1.73
2019-02-10T08:52:32.716Z,1.70
2019-02-10T08:54:37.342Z,1.90
2019-02-10T08:56:46.180Z,2.23
2019-02-10T08:59:15.210Z,1.70
2019-02-10T09:01:24.925Z,1.90
2019-02-10T09:03:29.579Z,2.00
2019-02-10T09:05:36.190Z,1.50
2019-02-10T09:07:41.412Z,1.70
2019-02-10T09:09:53.041Z,1.67
2019-02-10T09:12:09.409Z,1.87
2019-02-10T09:14:16.292Z,1.67
2019-02-10T09:16:26.206Z,1.77
2019-02-10T09:18:31.375Z,2.00
2019-02-10T09:20:41.773Z,1.53
2019-02-10T09:22:48.021Z,1.83
2019-02-10T09:25:06.288Z,1.57
2019-02-10T09:27:17.852Z,1.63
2019-02-10T09:29:32.268Z,1.90
2019-02-10T09:31:58.787Z,1.90
2019-02-10T09:34:10.638Z,1.60
2019-02-10T09:36:27.749Z,1.70
2019-02-10T09:38:39.857Z,1.90
2019-02-10T09:40:50.092Z,1.90
2019-02-10T09:42:55.068Z,1.80
2019-02-10T09:45:02.922Z,2.00
2019-02-10T09:47:08.740Z,1.30
2019-02-10T09:49:18.673Z,1.87
2019-02-10T09:51:33.439Z,1.90
2019-02-10T09:53:49.690Z,1.40
2019-02-10T09:56:00.075Z,1.53
2019-02-10T09:58:10.702Z,1.80
2019-02-10T10:00:17.161Z,1.40
2019-02-10T10:02:24.818Z,1.73
2019-02-10T10:04:35.913Z,1.63
2019-02-10T10:06:42.450Z,1.90
2019-02-10T10:08:53.116Z,2.10
2019-02-10T10:11:01.117Z,1.83
2019-02-10T10:13:08.317Z,1.90
2019-02-10T10:15:24.070Z,1.70
2019-02-10T10:17:30.905Z,1.90
2019-02-10T10:19:43.821Z,1.80
2019-02-10T10:21:53.054Z,1.47
2019-02-10T10:24:09.046Z,1.47
2019-02-10T10:26:17.678Z,1.40
2019-02-10T10:28:22.846Z,1.67
2019-02-10T10:30:30.504Z,1.63
2019-02-10T10:32:41.538Z,1.70
2019-02-10T10:34:52.524Z,1.70
2019-02-10T10:36:57.351Z,1.43
2019-02-10T10:39:03.799Z,1.50
2019-02-10T10:41:08.694Z,1.43
2019-02-10T10:43:14.867Z,2.00
2019-02-10T10:45:29.970Z,1.67
2019-02-10T10:47:37.152Z,1.67
2019-02-10T10:49:46.532Z,1.60
2019-02-10T10:52:02.874Z,1.87
2019-02-10T10:54:07.906Z,1.50
2019-02-10T10:56:12.820Z,1.67
2019-02-10T10:58:18.011Z,1.57
2019-02-10T11:00:24.772Z,1.50
2019-02-10T11:02:32.974Z,1.27
2019-02-10T11:04:46.700Z,30.50
2019-02-10T11:06:54.525Z,419.53
2019-02-10T11:09:00.794Z,580.17
2019-02-10T11:11:07.919Z,655.17
2019-02-10T11:13:34.027Z,294.93
2019-02-10T11:15:40.966Z,460.63
2019-02-10T11:17:49.472Z,537.23
2019-02-10T11:20:05.746Z,473.97
2019-02-10T11:22:12.475Z,741.60
2019-02-10T11:24:28.533Z,319.27
2019-02-10T11:26:31.513Z,673.63
2019-02-10T11:28:36.010Z,158.43
2019-02-10T11:30:47.964Z,80.90
2019-02-10T11:32:56.461Z,9.00
2019-02-10T11:35:06.468Z,3.83
2019-02-10T11:37:11.371Z,153.07
2019-02-10T11:39:16.323Z,53.23
2019-02-10T11:41:24.102Z,5.73
2019-02-10T11:43:28.884Z,2.97
2019-02-10T11:45:40.783Z,650.77
2019-02-10T11:47:45.575Z,270.37
2019-02-10T11:49:58.383Z,36.33
2019-02-10T11:52:12.750Z,6.13
2019-02-10T11:54:21.403Z,370.43
2019-02-10T11:56:29.214Z,438.30
2019-02-10T11:58:38.584Z,150.97
2019-02-10T12:00:41.254Z,354.73
2019-02-10T12:02:45.861Z,147.40
2019-02-10T12:04:51.454Z,193.13
2019-02-10T12:06:59.771Z,516.00
2019-02-10T12:09:10.366Z,200.23
2019-02-10T12:11:15.606Z,99.60
2019-02-10T12:13:20.198Z,136.67
2019-02-10T12:15:24.982Z,27.83
2019-02-10T12:17:29.084Z,7.80
2019-02-10T12:19:37.245Z,4.67
2019-02-10T12:21:44.964Z,142.30
2019-02-10T12:23:50.265Z,463.83
2019-02-10T12:25:58.632Z,435.67
2019-02-10T12:28:05.158Z,152.37
2019-02-10T12:30:12.016Z,113.43
2019-02-10T12:32:16.240Z,52.77
2019-02-10T12:34:21.949Z,11.80
2019-02-10T12:36:28.580Z,20.00
2019-02-10T12:38:40.217Z,10.37
2019-02-10T12:40:48.731Z,37.33
2019-02-10T12:42:53.251Z,107.97
2019-02-10T12:44:58.111Z,147.87
2019-02-10T12:47:02.810Z,164.27
2019-02-10T12:49:08.124Z,284.50
2019-02-10T12:51:13.741Z,228.43
2019-02-10T12:53:19.806Z,225.17
2019-02-10T12:55:24.631Z,555.77
2019-02-10T12:57:33.031Z,690.77
2019-02-10T12:59:40.750Z,673.87
2019-02-10T13:01:50.601Z,354.70
2019-02-10T13:03:55.235Z,132.97
2019-02-10T13:06:04.832Z,108.00
2019-02-10T13:08:09.401Z,238.57
2019-02-10T13:10:18.218Z,320.10
2019-02-10T13:12:22.834Z,81.43
2019-02-10T13:14:30.716Z,14.40
2019-02-10T13:16:38.653Z,5.57
2019-02-10T13:18:53.070Z,606.10
2019-02-10T13:20:58.342Z,741.53
2019-02-10T13:23:14.703Z,631.47
2019-02-10T13:25:27.997Z,707.57
2019-02-10T13:27:36.101Z,591.67
2019-02-10T13:29:54.613Z,738.83
2019-02-10T13:32:00.286Z,774.63
2019-02-10T13:34:08.294Z,659.47
2019-02-10T13:36:13.027Z,787.30
2019-02-10T13:38:20.400Z,675.37
2019-02-10T13:40:25.142Z,410.07
2019-02-10T13:42:29.717Z,163.50
2019-02-10T13:44:36.399Z,69.07
2019-02-10T13:46:44.162Z,25.50
2019-02-10T13:48:57.446Z,8.67
2019-02-10T13:51:06.399Z,6.40
2019-02-10T13:53:11.698Z,4.40
2019-02-10T13:55:21.285Z,4.27
2019-02-10T13:57:26.680Z,2.97
2019-02-10T13:59:34.662Z,3.10
2019-02-10T14:01:42.422Z,3.10
2019-02-10T14:04:09.838Z,2.70
2019-02-10T14:06:17.902Z,11.63
2019-02-10T14:08:23.057Z,247.40
2019-02-10T14:10:27.735Z,591.40
2019-02-10T14:12:31.942Z,766.27
2019-02-10T14:14:39.304Z,837.40
2019-02-10T14:16:46.397Z,796.10
2019-02-10T14:18:54.329Z,616.83
2019-02-10T14:21:03.767Z,713.27
2019-02-10T14:23:08.564Z,465.17
2019-02-10T14:25:12.922Z,261.47
2019-02-10T14:27:17.622Z,118.13
2019-02-10T14:29:23.046Z,47.80
2019-02-10T14:31:27.406Z,14.80
2019-02-10T14:33:38.876Z,6.77
2019-02-10T14:35:40.915Z,5.13
2019-02-10T14:37:47.394Z,4.20
2019-02-10T14:39:55.975Z,2.90
2019-02-10T14:42:05.376Z,3.10
2019-02-10T14:44:11.269Z,2.40
2019-02-10T14:46:15.633Z,3.00
2019-02-10T14:48:20.410Z,2.63
2019-02-10T14:50:28.944Z,2.90
2019-02-10T14:52:33.659Z,2.83
2019-02-10T14:54:38.506Z,2.30
2019-02-10T14:56:42.969Z,2.60
2019-02-10T14:58:48.762Z,2.43
2019-02-10T15:01:02.672Z,2.87
2019-02-10T15:03:10.076Z,2.57
2019-02-10T15:05:15.138Z,2.43
2019-02-10T15:07:25.310Z,2.17
2019-02-10T15:09:27.482Z,2.53
2019-02-10T15:11:32.404Z,2.10
2019-02-10T15:13:52.335Z,2.33
2019-02-10T15:15:56.664Z,2.07
2019-02-10T15:18:04.781Z,1.80
2019-02-10T15:20:09.295Z,1.93
2019-02-10T15:22:13.893Z,2.00
2019-02-10T15:24:18.776Z,2.60
2019-02-10T15:26:24.984Z,2.30
2019-02-10T15:28:34.519Z,2.03
2019-02-10T15:30:43.948Z,1.90
2019-02-10T15:32:48.930Z,1.77
2019-02-10T15:34:54.705Z,2.30
2019-02-10T15:36:59.421Z,1.97
2019-02-10T15:39:07.196Z,2.10
2019-02-10T15:41:15.206Z,2.20
2019-02-10T15:43:22.024Z,2.23
2019-02-10T15:45:37.789Z,2.57
2019-02-10T15:47:54.820Z,2.23
2019-02-10T15:49:59.672Z,2.30
2019-02-10T15:52:07.499Z,427.00
2019-02-10T15:54:18.500Z,187.23
2019-02-10T15:56:32.159Z,341.33
2019-02-10T15:58:45.608Z,94.93
2019-02-10T16:00:55.408Z,11.03
2019-02-10T16:03:03.383Z,7.00
2019-02-10T16:05:09.139Z,574.47
2019-02-10T16:07:16.132Z,678.33
2019-02-10T16:09:26.921Z,754.50
2019-02-10T16:11:31.892Z,766.80
2019-02-10T16:13:39.504Z,456.33
2019-02-10T16:15:46.649Z,461.00
2019-02-10T16:17:58.563Z,359.03
2019-02-10T16:20:04.846Z,124.47
2019-02-10T16:22:09.167Z,88.20
2019-02-10T16:24:15.287Z,680.23
2019-02-10T16:26:20.836Z,629.00
2019-02-10T16:28:25.548Z,487.97
2019-02-10T16:30:32.043Z,404.97
2019-02-10T16:32:37.546Z,260.90
2019-02-10T16:34:46.154Z,582.17
2019-02-10T16:36:53.942Z,622.10
2019-02-10T16:39:09.985Z,640.83
2019-02-10T16:41:15.866Z,459.67
2019-02-10T16:43:30.510Z,474.20
2019-02-10T16:45:34.878Z,154.23
2019-02-10T16:47:40.373Z,56.80
2019-02-10T16:50:04.409Z,17.80
2019-02-10T16:52:08.754Z,20.47
2019-02-10T16:54:14.423Z,136.23
2019-02-10T16:56:20.244Z,214.93
2019-02-10T16:58:27.319Z,477.97
2019-02-10T17:00:32.546Z,393.20
2019-02-10T17:02:37.609Z,142.10
2019-02-10T17:04:44.019Z,39.03
2019-02-10T17:06:57.455Z,152.60
2019-02-10T17:09:09.512Z,428.27
2019-02-10T17:11:17.108Z,216.07
2019-02-10T17:13:23.204Z,326.20
2019-02-10T17:15:49.090Z,292.30
2019-02-10T17:18:05.989Z,43.57
2019-02-10T17:20:14.467Z,8.80
2019-02-10T17:22:24.023Z,4.10
2019-02-10T17:24:34.162Z,2.93
2019-02-10T17:26:39.832Z,2.87
2019-02-10T17:28:46.808Z,1.93
2019-02-10T17:30:58.461Z,96.40
2019-02-10T17:33:07.321Z,159.43
2019-02-10T17:35:15.733Z,119.93
2019-02-10T17:37:21.004Z,582.33
2019-02-10T17:39:26.832Z,340.33
2019-02-10T17:41:39.219Z,89.03
2019-02-10T17:43:44.830Z,524.60
2019-02-10T17:45:52.195Z,449.03
2019-02-10T17:47:58.932Z,165.37
2019-02-10T17:50:09.369Z,280.10
2019-02-10T17:52:15.737Z,269.40
2019-02-10T17:54:21.299Z,52.83
2019-02-10T17:56:27.207Z,26.00
2019-02-10T17:58:33.207Z,106.07
2019-02-10T18:00:42.258Z,11.37
2019-02-10T18:02:47.854Z,2.67
2019-02-10T18:04:54.800Z,6.93
2019-02-10T18:07:12.568Z,60.40
2019-02-10T18:09:18.120Z,65.20
2019-02-10T18:11:29.782Z,166.40
2019-02-10T18:13:30.693Z,268.33
2019-02-10T18:16:03.043Z,217.50
2019-02-10T18:18:45.422Z,242.73
2019-02-10T18:21:23.303Z,218.90
2019-02-10T18:23:52.434Z,189.77
2019-02-10T18:26:23.981Z,157.37
2019-02-10T18:28:49.643Z,150.20
2019-02-10T18:31:22.204Z,134.50
2019-02-10T18:33:45.193Z,226.97
2019-02-10T18:36:11.098Z,133.50
2019-02-10T18:38:33.912Z,126.77
2019-02-10T18:41:02.654Z,147.13
2019-02-10T18:43:29.445Z,177.53
2019-02-10T18:45:56.680Z,461.43
2019-02-10T18:48:25.361Z,360.33
2019-02-10T18:50:46.487Z,351.03
2019-02-10T18:53:16.086Z,159.53
2019-02-10T18:56:00.817Z,87.80
2019-02-10T18:58:40.575Z,378.07
2019-02-10T19:01:21.119Z,449.37
2019-02-10T19:03:43.475Z,530.87
2019-02-10T19:06:19.151Z,469.20
2019-02-10T19:08:51.084Z,569.13
2019-02-10T19:11:21.850Z,512.47
2019-02-10T19:13:53.768Z,853.03
2019-02-10T19:16:34.952Z,835.97
2019-02-10T19:18:51.553Z,818.73
2019-02-10T19:21:21.131Z,820.80
2019-02-10T19:23:53.506Z,694.40
2019-02-10T19:26:26.140Z,732.73
2019-02-10T19:28:56.008Z,639.60
2019-02-10T19:31:12.240Z,426.40
2019-02-10T19:33:34.554Z,215.10
2019-02-10T19:36:09.775Z,89.00
2019-02-10T19:38:22.459Z,48.20
2019-02-10T19:40:46.731Z,331.57
2019-02-10T19:43:17.656Z,532.17
2019-02-10T19:45:45.645Z,149.03
2019-02-10T19:48:17.400Z,203.97
2019-02-10T19:50:52.721Z,165.43
2019-02-10T19:53:32.393Z,51.13
2019-02-10T19:56:00.729Z,439.40
2019-02-10T19:58:19.583Z,250.17
2019-02-10T20:00:55.777Z,416.80
2019-02-10T20:03:36.992Z,511.30
2019-02-10T20:06:01.554Z,398.10
2019-02-10T20:08:39.897Z,121.63
2019-02-10T20:11:09.386Z,36.43
2019-02-10T20:13:45.510Z,34.50
2019-02-10T20:16:02.701Z,127.53
2019-02-10T20:18:36.118Z,50.37
2019-02-10T20:20:56.461Z,171.63
2019-02-10T20:23:24.637Z,567.53
2019-02-10T20:25:44.851Z,281.07
2019-02-10T20:28:11.216Z,82.40
2019-02-10T20:30:33.699Z,26.20
2019-02-10T20:33:06.897Z,51.10
2019-02-10T20:35:36.738Z,569.10
2019-02-10T20:38:06.532Z,314.30
2019-02-10T20:40:43.333Z,395.13
2019-02-10T20:43:09.454Z,442.87
2019-02-10T20:45:26.565Z,192.80
2019-02-10T20:48:01.837Z,368.63
2019-02-10T20:50:34.512Z,259.93
2019-02-10T20:53:01.052Z,72.30
2019-02-10T20:55:24.724Z,105.07
2019-02-10T20:57:44.720Z,26.47
2019-02-10T21:00:06.485Z,15.40
2019-02-10T21:02:26.365Z,475.13
2019-02-10T21:05:01.745Z,38.80
2019-02-10T21:07:31.447Z,481.10
2019-02-10T21:10:05.674Z,160.37
2019-02-10T21:12:28.039Z,52.23
2019-02-10T21:14:54.169Z,19.80
2019-02-10T21:17:30.461Z,118.80
2019-02-10T21:20:00.186Z,21.00
2019-02-10T21:22:23.069Z,11.57
2019-02-10T21:24:47.425Z,10.63
2019-02-10T21:27:07.480Z,10.60
2019-02-10T21:29:37.298Z,10.90
2019-02-10T21:32:01.949Z,564.17
2019-02-10T21:34:31.840Z,225.10
2019-02-10T21:37:02.566Z,19.10
2019-02-10T21:39:36.092Z,16.00
2019-02-10T21:41:55.697Z,76.83
2019-02-10T21:44:07.681Z,56.73
2019-02-10T21:46:31.282Z,235.77
2019-02-10T21:48:42.995Z,457.77
2019-02-10T21:50:54.149Z,320.47
2019-02-10T21:52:59.172Z,67.97
2019-02-10T21:55:04.896Z,16.10
2019-02-10T21:57:10.437Z,325.27
2019-02-10T21:59:15.657Z,139.27
2019-02-10T22:01:20.545Z,22.80
2019-02-10T22:03:28.726Z,9.10
2019-02-10T22:05:33.789Z,8.00
2019-02-10T22:07:40.107Z,6.90
2019-02-10T22:09:47.974Z,6.87
2019-02-10T22:11:58.850Z,6.10
2019-02-10T22:14:07.451Z,26.57
2019-02-10T22:16:12.660Z,778.97
2019-02-10T22:18:17.233Z,821.83
2019-02-10T22:20:21.811Z,609.93
2019-02-10T22:22:27.587Z,250.00
2019-02-10T22:24:31.835Z,48.40
2019-02-10T22:26:37.728Z,10.70
2019-02-10T22:28:44.378Z,7.67
2019-02-10T22:30:49.931Z,7.07
2019-02-10T22:33:01.273Z,6.03
2019-02-10T22:35:06.046Z,6.90
2019-02-10T22:37:16.185Z,6.10
2019-02-10T22:39:20.721Z,5.80
2019-02-10T22:41:26.964Z,316.90
2019-02-10T22:43:31.249Z,165.67
2019-02-10T22:45:35.866Z,31.83
2019-02-10T22:47:40.680Z,46.90
2019-02-10T22:49:48.604Z,410.83
2019-02-10T22:52:07.600Z,153.83
2019-02-10T22:54:13.710Z,513.37
2019-02-10T22:56:18.863Z,376.67
2019-02-10T22:58:23.117Z,230.37
2019-02-10T23:00:50.553Z,97.13
2019-02-10T23:03:07.831Z,19.30
2019-02-10T23:05:12.416Z,8.03
2019-02-10T23:07:17.106Z,6.20
2019-02-10T23:09:25.098Z,5.23
2019-02-10T23:11:31.094Z,4.50
2019-02-10T23:13:35.821Z,4.43
2019-02-10T23:15:41.692Z,3.60
2019-02-10T23:17:46.590Z,4.00
2019-02-10T23:19:54.773Z,4.07
2019-02-10T23:22:01.863Z,3.60
2019-02-10T23:24:11.378Z,4.50
2019-02-10T23:26:16.118Z,3.67
2019-02-10T23:28:20.417Z,3.20
2019-02-10T23:30:24.525Z,3.30
2019-02-10T23:32:29.047Z,3.10
2019-02-10T23:34:33.606Z,3.67
2019-02-10T23:36:38.025Z,2.43
2019-02-10T23:38:43.030Z,2.77
2019-02-10T23:40:47.304Z,2.70
2019-02-10T23:42:51.957Z,2.87
2019-02-10T23:45:00.211Z,2.77
2019-02-10T23:47:06.626Z,2.63
2019-02-10T23:49:13.790Z,2.80
2019-02-10T23:51:17.924Z,2.70
2019-02-10T23:53:22.173Z,2.50
2019-02-10T23:55:26.501Z,2.40
2019-02-10T23:57:31.957Z,2.00
2019-02-10T23:59:43.385Z,2.33
